sensor_id;sensor_type;location;lat;lon;timestamp;P1;durP1;ratioP1;P2;durP2;ratioP2
9288;SDS011;4683;50.864;12.086;2022-07-18T00:26:16;5.43;;;2.20;;
9288;SDS011;4683;50.864;12.086;2022-07-18T00:30:17;4.57;;;2.20;;
9288;SDS011;4683;50.864;12.086;2022-07-18T00:32:43;3.70;;;2.40;;
9288;SDS011;4683;50.864;12.086;2022-07-18T00:39:02;2.93;;;2.37;;
9288;SDS011;4683;50.864;12.086;2022-07-18T00:41:59;3.60;;;2.20;;
9288;SDS011;4683;50.864;12.086;2022-07-18T00:44:58;2.57;;;1.90;;
9288;SDS011;4683;50.864;12.086;2022-07-18T00:48:26;2.87;;;2.10;;
9288;SDS011;4683;50.864;12.086;2022-07-18T00:51:15;2.90;;;2.13;;
9288;SDS011;4683;50.864;12.086;2022-07-18T00:53:56;4.87;;;2.50;;
9288;SDS011;4683;50.864;12.086;2022-07-18T01:01:12;2.83;;;2.23;;
9288;SDS011;4683;50.864;12.086;2022-07-18T01:04:07;3.93;;;2.20;;
9288;SDS011;4683;50.864;12.086;2022-07-18T01:07:23;3.20;;;2.30;;
9288;SDS011;4683;50.864;12.086;2022-07-18T01:09:46;2.30;;;2.10;;
9288;SDS011;4683;50.864;12.086;2022-07-18T01:12:34;3.43;;;2.37;;
9288;SDS011;4683;50.864;12.086;2022-07-18T01:15:08;3.03;;;2.50;;
9288;SDS011;4683;50.864;12.086;2022-07-18T01:17:59;5.20;;;2.30;;
9288;SDS011;4683;50.864;12.086;2022-07-18T01:21:12;4.93;;;3.00;;
9288;SDS011;4683;50.864;12.086;2022-07-18T01:24:39;3.70;;;2.60;;
9288;SDS011;4683;50.864;12.086;2022-07-18T01:27:30;3.60;;;2.30;;
9288;SDS011;4683;50.864;12.086;2022-07-18T01:31:01;3.93;;;2.93;;
9288;SDS011;4683;50.864;12.086;2022-07-18T01:33:37;6.90;;;2.67;;
9288;SDS011;4683;50.864;12.086;2022-07-18T01:39:46;5.57;;;3.07;;
9288;SDS011;4683;50.864;12.086;2022-07-18T01:42:55;5.17;;;3.20;;
9288;SDS011;4683;50.864;12.086;2022-07-18T01:46:14;5.57;;;4.13;;
9288;SDS011;4683;50.864;12.086;2022-07-18T01:49:33;5.50;;;2.80;;
9288;SDS011;4683;50.864;12.086;2022-07-18T01:52:24;5.37;;;2.80;;
9288;SDS011;4683;50.864;12.086;2022-07-18T01:55:02;5.10;;;2.67;;
9288;SDS011;4683;50.864;12.086;2022-07-18T01:58:02;4.77;;;2.90;;
9288;SDS011;4683;50.864;12.086;2022-07-18T02:01:01;4.47;;;3.20;;
9288;SDS011;4683;50.864;12.086;2022-07-18T02:04:11;6.83;;;2.73;;
9288;SDS011;4683;50.864;12.086;2022-07-18T02:11:27;5.53;;;2.60;;
9288;SDS011;4683;50.864;12.086;2022-07-18T02:18:01;4.80;;;3.83;;
9288;SDS011;4683;50.864;12.086;2022-07-18T02:20:39;6.10;;;2.97;;
9288;SDS011;4683;50.864;12.086;2022-07-18T02:23:23;4.67;;;2.97;;
9288;SDS011;4683;50.864;12.086;2022-07-18T02:30:34;6.30;;;3.83;;
9288;SDS011;4683;50.864;12.086;2022-07-18T02:33:32;4.23;;;3.03;;
9288;SDS011;4683;50.864;12.086;2022-07-18T02:36:54;4.43;;;3.30;;
9288;SDS011;4683;50.864;12.086;2022-07-18T02:40:19;4.47;;;3.07;;
9288;SDS011;4683;50.864;12.086;2022-07-18T02:43:26;6.07;;;3.43;;
9288;SDS011;4683;50.864;12.086;2022-07-18T02:46:16;5.67;;;3.30;;
9288;SDS011;4683;50.864;12.086;2022-07-18T02:49:15;3.73;;;2.80;;
9288;SDS011;4683;50.864;12.086;2022-07-18T02:51:59;4.20;;;3.00;;
9288;SDS011;4683;50.864;12.086;2022-07-18T03:17:12;4.13;;;3.50;;
9288;SDS011;4683;50.864;12.086;2022-07-18T03:20:23;5.60;;;2.93;;
9288;SDS011;4683;50.864;12.086;2022-07-18T03:23:36;7.13;;;3.40;;
9288;SDS011;4683;50.864;12.086;2022-07-18T03:30:47;5.87;;;3.20;;
9288;SDS011;4683;50.864;12.086;2022-07-18T03:43:00;3.33;;;2.90;;
9288;SDS011;4683;50.864;12.086;2022-07-18T03:46:34;4.77;;;3.10;;
9288;SDS011;4683;50.864;12.086;2022-07-18T04:12:33;4.60;;;2.83;;
9288;SDS011;4683;50.864;12.086;2022-07-18T04:15:51;5.33;;;3.00;;
9288;SDS011;4683;50.864;12.086;2022-07-18T04:19:25;4.10;;;2.63;;
9288;SDS011;4683;50.864;12.086;2022-07-18T04:22:00;4.93;;;2.80;;
9288;SDS011;4683;50.864;12.086;2022-07-18T04:24:41;3.87;;;3.20;;
9288;SDS011;4683;50.864;12.086;2022-07-18T04:27:32;5.83;;;2.83;;
9288;SDS011;4683;50.864;12.086;2022-07-18T04:30:02;5.33;;;2.67;;
9288;SDS011;4683;50.864;12.086;2022-07-18T04:32:33;3.27;;;2.70;;
9288;SDS011;4683;50.864;12.086;2022-07-18T04:35:14;7.03;;;2.67;;
9288;SDS011;4683;50.864;12.086;2022-07-18T04:38:09;4.70;;;3.30;;
9288;SDS011;4683;50.864;12.086;2022-07-18T04:41:05;3.37;;;2.97;;
9288;SDS011;4683;50.864;12.086;2022-07-18T04:43:37;4.60;;;3.60;;
9288;SDS011;4683;50.864;12.086;2022-07-18T04:46:39;6.90;;;3.50;;
9288;SDS011;4683;50.864;12.086;2022-07-18T04:49:34;6.40;;;3.63;;
9288;SDS011;4683;50.864;12.086;2022-07-18T04:56:11;5.37;;;3.60;;
9288;SDS011;4683;50.864;12.086;2022-07-18T04:58:47;5.33;;;4.10;;
9288;SDS011;4683;50.864;12.086;2022-07-18T05:01:22;5.70;;;4.20;;
9288;SDS011;4683;50.864;12.086;2022-07-18T05:04:39;5.17;;;3.73;;
9288;SDS011;4683;50.864;12.086;2022-07-18T05:08:00;6.47;;;4.00;;
9288;SDS011;4683;50.864;12.086;2022-07-18T05:10:48;5.83;;;4.00;;
9288;SDS011;4683;50.864;12.086;2022-07-18T09:03:46;4.10;;;1.77;;
9288;SDS011;4683;50.864;12.086;2022-07-18T09:11:10;3.17;;;1.57;;
9288;SDS011;4683;50.864;12.086;2022-07-18T09:56:26;2.53;;;1.90;;
9288;SDS011;4683;50.864;12.086;2022-07-18T10:15:54;3.00;;;2.10;;
9288;SDS011;4683;50.864;12.086;2022-07-18T12:43:01;2.80;;;2.23;;
9288;SDS011;4683;50.864;12.086;2022-07-18T19:39:06;4.37;;;3.97;;
